Time;durP1;ratioP1;P1;durP2;ratioP2;P2;SDS_P1;SDS_P2;PMS_P1;PMS_P2;Temp;Humidity;BMP_temperature;BMP_pressure;BME280_temperature;BME280_humidity;BME280_pressure;Samples;Min_cycle;Max_cycle;Signal;HPM_P1;HPM_P2
2022/09/08 00:00:20;;;;;;;2.08;1.23;;;20.50;99.90;;;20.97;100.00;100294.19;5205158;28;20164;-71
2022/09/08 00:02:54;;;;;;;1.55;1.13;;;20.50;99.90;;;20.95;100.00;100293.38;5204215;28;20050;-70
2022/09/08 00:05:27;;;;;;;;;;;20.50;99.90;;;20.92;100.00;100296.03;5205919;28;20073;-70
2022/09/08 00:08:01;;;;;;;1.85;1.00;;;20.40;99.90;;;20.90;100.00;100293.41;5205133;28;19921;-73
2022/09/08 00:10:33;;;;;;;2.30;1.10;;;20.40;99.90;;;20.85;100.00;100288.19;5205487;28;20049;-71
2022/09/08 00:13:07;;;;;;;1.20;1.10;;;20.40;99.90;;;20.80;100.00;100282.09;5205174;28;20139;-70
2022/09/08 00:15:40;;;;;;;2.15;1.10;;;20.40;99.90;;;20.79;100.00;100277.69;5205429;28;20376;-71
2022/09/08 00:18:12;;;;;;;1.40;1.30;;;20.40;99.90;;;20.78;100.00;100273.28;5205117;28;20045;-70
2022/09/08 00:20:48;;;;;;;1.50;1.33;;;20.30;99.90;;;20.76;100.00;100280.41;5203743;28;20060;-70
2022/09/08 00:23:21;;;;;;;2.20;1.40;;;20.30;99.90;;;20.73;100.00;100259.22;5205341;28;20048;-70
2022/09/08 00:25:54;;;;;;;1.88;1.30;;;20.40;99.90;;;20.72;100.00;100257.50;5203600;28;20409;-70
2022/09/08 00:28:27;;;;;;;1.77;1.15;;;20.30;99.90;;;20.72;100.00;100252.19;5203848;28;20060;-70
2022/09/08 00:31:00;;;;;;;3.08;1.40;;;20.30;99.90;;;20.73;100.00;100253.06;5205078;28;20045;-70
2022/09/08 00:33:33;;;;;;;2.08;1.13;;;20.30;99.90;;;20.71;100.00;100245.16;5204951;28;20259;-72
2022/09/08 00:36:10;;;;;;;2.45;1.13;;;20.30;99.90;;;20.70;100.00;100238.09;5204676;28;20052;-72
2022/09/08 00:38:47;;;;;;;1.60;1.20;;;20.30;99.90;;;20.72;100.00;100236.31;5205299;28;20054;-70
2022/09/08 00:41:21;;;;;;;2.00;1.23;;;20.30;99.90;;;20.70;100.00;100235.47;5204795;28;20099;-71
2022/09/08 00:43:58;;;;;;;1.60;1.30;;;20.30;99.90;;;20.71;100.00;100226.63;5204644;28;20525;-70
2022/09/08 00:46:34;;;;;;;3.17;1.50;;;20.30;99.90;;;20.70;100.00;100218.69;5204208;28;20077;-72
2022/09/08 00:49:16;;;;;;;1.30;1.20;;;20.30;99.90;;;20.69;100.00;100217.81;5202443;28;20056;-71
2022/09/08 00:51:52;;;;;;;1.50;1.40;;;20.30;99.90;;;20.70;100.00;100216.94;5203252;28;20558;-71
2022/09/08 00:54:28;;;;;;;3.10;1.30;;;20.30;99.90;;;20.71;100.00;100210.72;5204612;28;20410;-70
2022/09/08 00:57:00;;;;;;;2.25;1.33;;;20.30;99.90;;;20.70;100.00;100201.03;5204121;28;20045;-71
2022/09/08 00:59:36;;;;;;;1.67;1.23;;;20.30;99.90;;;20.72;100.00;100209.81;5203130;28;20064;-70
2022/09/08 01:02:25;;;;;;;2.70;1.50;;;20.30;99.90;;;20.72;100.00;100196.56;5203089;28;20587;-70
2022/09/08 01:05:03;;;;;;;2.38;1.23;;;20.30;99.90;;;20.73;100.00;100202.75;5204597;28;20406;-71
2022/09/08 01:13:41;;;;;;;1.25;1.10;;;20.30;99.90;;;20.73;100.00;100187.72;5204448;28;20124;-71
2022/09/08 01:16:14;;;;;;;1.40;1.15;;;20.30;99.90;;;20.74;100.00;100186.84;5204501;28;20072;-71
2022/09/08 01:18:47;;;;;;;2.83;1.50;;;20.30;99.90;;;20.73;100.00;100190.38;5204164;28;20063;-70
2022/09/08 01:21:34;;;;;;;1.88;1.30;;;20.30;99.90;;;20.71;100.00;100202.78;5204070;28;20461;-71
2022/09/08 01:24:30;;;;;;;1.55;1.13;;;20.30;99.90;;;20.69;100.00;100201.94;5203329;28;20056;-70
2022/09/08 01:27:13;;;;;;;2.55;1.20;;;20.30;99.90;;;20.63;100.00;100209.97;5203651;28;20033;-72
2022/09/08 01:29:47;;;;;;;1.88;1.40;;;20.20;99.90;;;20.60;100.00;100212.66;5204317;28;20055;-70
2022/09/08 01:32:20;;;;;;;1.67;1.27;;;20.20;99.90;;;20.58;100.00;100210.03;5202779;28;20144;-70
2022/09/08 01:34:52;;;;;;;1.65;1.33;;;20.20;99.90;;;20.53;100.00;100205.72;5203349;28;20042;-70
2022/09/08 01:37:25;;;;;;;1.77;1.20;;;20.10;99.90;;;20.48;100.00;100199.63;5203832;28;20053;-71
2022/09/08 01:39:57;;;;;;;3.10;1.20;;;20.10;99.90;;;20.43;100.00;100201.44;5204520;28;20045;-70
2022/09/08 01:42:30;;;;;;;1.73;1.50;;;20.10;99.90;;;20.38;100.00;100206.78;5204125;28;20045;-70
2022/09/08 01:45:02;;;;;;;2.55;1.35;;;20.00;99.90;;;20.38;100.00;100201.50;5204207;28;20414;-70
2022/09/08 01:47:34;;;;;;;2.25;1.05;;;20.00;99.90;;;20.40;100.00;100199.69;5203475;28;20179;-70
2022/09/08 01:50:09;;;;;;;1.23;1.13;;;20.00;99.90;;;20.41;100.00;100188.22;5204040;28;20111;-71
2022/09/08 01:52:41;;;;;;;4.50;1.30;;;20.00;99.90;;;20.43;100.00;100201.44;5204305;28;20052;-70
2022/09/08 01:55:14;;;;;;;2.55;1.20;;;20.00;99.90;;;20.41;100.00;100195.25;5204060;28;20553;-70
2022/09/08 01:57:48;;;;;;;1.55;1.45;;;20.00;99.90;;;20.42;100.00;100200.56;5203608;28;20042;-70
2022/09/08 02:00:20;;;;;;;1.92;1.20;;;20.00;99.90;;;20.44;100.00;100192.59;5205467;28;20045;-70
2022/09/08 02:02:53;;;;;;;1.88;1.20;;;20.00;99.90;;;20.44;100.00;100185.53;5208138;28;20072;-71
2022/09/08 02:05:26;;;;;;;3.13;1.75;;;20.00;99.90;;;20.47;100.00;100181.97;5207892;28;20073;-70
2022/09/08 02:07:58;;;;;;;3.20;1.40;;;20.00;99.90;;;20.47;100.00;100185.50;5207130;28;20044;-71
2022/09/08 02:10:30;;;;;;;2.95;1.20;;;20.00;99.90;;;20.50;100.00;100192.53;5207672;28;20053;-70
2022/09/08 02:13:05;;;;;;;2.33;1.30;;;20.10;99.90;;;20.53;100.00;100192.47;5207858;28;20045;-71
2022/09/08 02:15:38;;;;;;;1.83;1.08;;;20.10;99.90;;;20.54;100.00;100199.53;5207309;28;20047;-71
2022/09/08 02:18:10;;;;;;;2.03;1.13;;;20.10;99.90;;;20.57;100.00;100207.41;5207268;28;20045;-71
2022/09/08 02:20:42;;;;;;;1.38;1.27;;;20.10;99.90;;;20.58;100.00;100198.56;5207534;28;20077;-70
2022/09/08 02:23:16;;;;;;;1.95;1.30;;;20.10;99.90;;;20.59;100.00;100206.50;5207050;28;20049;-71
2022/09/08 02:25:49;;;;;;;1.15;1.02;;;20.20;99.90;;;20.62;100.00;100213.53;5207003;28;20048;-71
2022/09/08 02:28:23;;;;;;;1.40;1.30;;;20.20;99.90;;;20.62;100.00;100217.94;5207378;28;20445;-71
2022/09/08 02:30:59;;;;;;;4.03;1.45;;;20.20;99.90;;;20.59;100.00;100227.66;5207454;28;20432;-71
2022/09/08 02:33:32;;;;;;;2.33;1.40;;;20.20;99.90;;;20.58;100.00;100227.69;5206223;28;20045;-72
2022/09/08 02:36:05;;;;;;;3.35;1.70;;;20.20;99.90;;;20.53;100.00;100237.47;5207381;28;20053;-72
2022/09/08 02:38:37;;;;;;;2.85;1.52;;;20.20;99.90;;;20.49;100.00;100233.16;5207745;28;20064;-70
2022/09/08 02:41:10;;;;;;;2.10;1.50;;;20.10;99.90;;;20.51;100.00;100241.94;5207458;28;20056;-70
2022/09/08 02:43:44;;;;;;;2.97;1.42;;;20.10;99.90;;;20.50;100.00;100241.06;5207761;28;20042;-71
2022/09/08 02:46:16;;;;;;;2.45;1.35;;;20.10;99.90;;;20.49;100.00;100241.09;5207387;28;20401;-71
2022/09/08 02:48:48;;;;;;;3.33;1.40;;;20.10;99.90;;;20.50;100.00;100248.13;5207440;28;20064;-70
2022/09/08 02:51:20;;;;;;;2.10;1.38;;;20.10;99.90;;;20.50;100.00;100248.13;5207627;28;20095;-71
2022/09/08 02:53:55;;;;;;;2.20;1.23;;;20.10;99.90;;;20.53;100.00;100245.41;5207488;28;20122;-69
2022/09/08 02:56:27;;;;;;;2.30;1.40;;;20.10;99.90;;;20.49;100.00;100244.59;5206988;28;20422;-71
2022/09/08 02:59:01;;;;;;;2.85;1.60;;;20.10;99.90;;;20.47;100.00;100245.50;5206186;28;20045;-70
2022/09/08 03:01:33;;;;;;;2.20;1.52;;;20.10;99.90;;;20.46;100.00;100244.63;5207305;28;20042;-70
2022/09/08 03:04:05;;;;;;;1.88;1.23;;;20.10;99.90;;;20.43;100.00;100241.13;5207082;28;20049;-69
2022/09/08 03:06:38;;;;;;;2.50;1.30;;;20.00;99.90;;;20.41;100.00;100240.25;5206900;28;20077;-69
2022/09/08 03:09:10;;;;;;;2.67;1.52;;;20.00;99.90;;;20.38;100.00;100251.78;5206954;28;20033;-70
2022/09/08 03:11:42;;;;;;;2.85;1.45;;;20.00;99.90;;;20.35;100.00;100248.31;5206413;28;20049;-69
2022/09/08 03:14:16;;;;;;;3.28;1.60;;;20.00;99.90;;;20.29;100.00;100246.63;5206951;28;20060;-69
2022/09/08 03:16:48;;;;;;;3.42;1.60;;;19.90;99.90;;;20.26;100.00;100252.81;5206593;28;20056;-68
2022/09/08 03:19:20;;;;;;;2.55;1.60;;;19.90;99.90;;;20.23;100.00;100239.66;5206693;28;20514;-69
2022/09/08 03:21:52;;;;;;;2.28;1.50;;;19.80;99.90;;;20.20;100.00;100238.78;5206887;28;20057;-68
2022/09/08 03:24:24;;;;;;;2.20;1.50;;;19.80;99.90;;;20.15;100.00;100246.81;5206751;28;20053;-68
2022/09/08 03:26:56;;;;;;;3.35;1.67;;;19.80;99.90;;;20.09;100.00;100240.72;5206372;28;20124;-68
2022/09/08 03:29:31;;;;;;;3.58;1.98;;;19.70;99.90;;;20.03;100.00;100237.25;5206476;28;20402;-68
2022/09/08 03:32:03;;;;;;;3.72;1.77;;;19.70;99.90;;;20.02;100.00;100237.28;5206537;28;20541;-69
2022/09/08 03:34:37;;;;;;;3.13;1.70;;;19.70;99.90;;;19.97;100.00;100233.81;5206568;28;20068;-69
2022/09/08 03:37:09;;;;;;;1.98;1.63;;;19.60;99.90;;;19.93;100.00;100235.59;5206176;28;20439;-68
2022/09/08 03:39:41;;;;;;;2.92;1.88;;;19.60;99.90;;;19.90;100.00;100235.66;5206431;28;20040;-68
2022/09/08 03:42:13;;;;;;;3.60;1.75;;;19.50;99.90;;;19.89;100.00;100233.91;5206275;28;20068;-69
2022/09/08 03:44:47;;;;;;;2.63;1.70;;;19.50;99.90;;;19.87;100.00;100232.16;5206345;28;20507;-69
2022/09/08 03:47:19;;;;;;;3.90;2.05;;;19.50;99.90;;;19.77;100.00;100232.28;5204930;28;20060;-69
2022/09/08 03:49:51;;;;;;;2.92;1.90;;;19.50;99.90;;;19.65;100.00;100231.53;5206083;28;20041;-68
2022/09/08 03:52:23;;;;;;;4.38;1.83;;;19.40;99.90;;;19.56;100.00;100229.84;5206501;28;20545;-68
2022/09/08 03:54:57;;;;;;;3.97;2.25;;;19.40;99.90;;;19.49;100.00;100221.09;5206048;28;20056;-68
2022/09/08 03:57:30;;;;;;;4.60;1.90;;;19.30;99.90;;;19.41;100.00;100224.72;5315257;22;20521;-73
2022/09/08 04:00:08;;;;;;;3.80;2.03;;;19.20;99.90;;;19.39;100.00;100226.50;5203414;28;20849;-74
2022/09/08 04:02:44;;;;;;;3.88;1.98;;;19.20;99.90;;;19.43;100.00;100217.63;5186014;28;20276;-74
2022/09/08 04:05:17;;;;;;;4.00;2.08;;;19.20;99.90;;;19.46;100.00;100221.13;5184807;28;20050;-74
2022/09/08 04:07:49;;;;;;;4.05;1.92;;;19.20;99.90;;;19.52;100.00;100225.47;5184869;28;20506;-74
2022/09/08 04:10:21;;;;;;;3.22;2.08;;;19.20;99.90;;;19.49;100.00;100220.22;5183669;28;20050;-75
2022/09/08 04:12:53;;;;;;;4.90;1.88;;;19.20;99.90;;;19.49;100.00;100221.09;5185230;28;20125;-73
2022/09/08 04:15:27;;;;;;;6.20;2.05;;;19.20;99.90;;;19.51;100.00;100213.16;5183985;28;20498;-76
2022/09/08 04:17:59;;;;;;;3.28;1.92;;;19.20;99.90;;;19.54;100.00;100210.47;5183573;28;20060;-73
2022/09/08 04:20:31;;;;;;;3.45;1.90;;;19.20;99.90;;;19.57;100.00;100210.47;5185187;28;20048;-73
2022/09/08 04:23:03;;;;;;;2.72;1.80;;;19.20;99.90;;;19.57;100.00;100215.75;5184530;28;20054;-74
2022/09/08 04:25:35;;;;;;;2.67;1.70;;;19.20;99.90;;;19.57;100.00;100210.47;5183857;28;20046;-73
2022/09/08 04:28:07;;;;;;;3.30;1.65;;;19.20;99.90;;;19.57;100.00;100202.53;5183486;28;20407;-75
2022/09/08 04:30:41;;;;;;;1.88;1.60;;;19.20;99.90;;;19.53;100.00;100201.66;5183563;28;20480;-74
2022/09/08 04:33:13;;;;;;;2.78;1.80;;;19.20;99.90;;;19.53;100.00;100201.66;5183572;28;20048;-74
2022/09/08 04:35:45;;;;;;;3.60;1.90;;;19.20;99.90;;;19.55;100.00;100206.94;5183470;28;20053;-74
2022/09/08 04:38:17;;;;;;;3.03;1.90;;;19.20;99.90;;;19.53;100.00;100200.81;5183501;28;20144;-73
2022/09/08 04:40:49;;;;;;;3.42;1.80;;;19.20;99.90;;;19.53;100.00;100203.44;5183091;28;20066;-69
2022/09/08 04:43:22;;;;;;;2.40;1.73;;;19.20;99.90;;;19.55;100.00;100204.28;5184030;28;20047;-70
2022/09/08 04:45:56;;;;;;;4.30;1.83;;;19.20;99.90;;;19.57;100.00;100207.81;5183840;28;20077;-70
2022/09/08 04:48:31;;;;;;;3.63;1.70;;;19.20;99.90;;;19.55;100.00;100201.66;5183964;28;20052;-70
2022/09/08 04:51:04;;;;;;;4.85;2.45;;;19.20;99.90;;;19.53;100.00;100208.72;5184095;28;20050;-69
2022/09/08 04:53:37;;;;;;;3.58;2.00;;;19.20;99.90;;;19.48;100.00;100202.59;5184656;28;20056;-71
2022/09/08 04:56:11;;;;;;;5.00;2.00;;;19.20;99.90;;;19.39;100.00;100202.72;5182388;28;20384;-74
2022/09/08 04:58:45;;;;;;;3.58;1.85;;;19.10;99.90;;;19.36;100.00;100213.31;5184005;28;20042;-70
2022/09/08 05:01:23;;;;;;;4.22;2.25;;;19.10;99.90;;;19.36;100.00;100213.31;5183978;28;20073;-72
2022/09/08 05:03:59;;;;;;;2.88;1.92;;;19.10;99.90;;;19.39;100.00;100210.66;5182480;28;20049;-71
2022/09/08 05:06:35;;;;;;;3.03;1.90;;;19.00;99.90;;;19.40;100.00;100207.09;5183645;28;20050;-71
2022/09/08 05:09:11;;;;;;;3.28;1.90;;;19.10;99.90;;;19.39;100.00;100213.28;5182511;28;20030;-70
2022/09/08 05:11:43;;;;;;;3.15;1.98;;;19.10;99.90;;;19.38;100.00;100206.25;5183877;28;20491;-70
2022/09/08 05:14:15;;;;;;;2.70;1.95;;;19.10;99.90;;;19.38;100.00;100200.97;5182367;28;20054;-70
2022/09/08 05:16:48;;;;;;;3.17;2.03;;;19.10;99.90;;;19.39;100.00;100202.72;5182294;28;20056;-69
2022/09/08 05:19:20;;;;;;;2.20;1.85;;;19.10;99.90;;;19.40;100.00;100209.75;5182431;28;20046;-70
2022/09/08 05:21:54;;;;;;;3.30;1.80;;;19.10;99.90;;;19.42;100.00;100207.97;5182404;28;20049;-70
2022/09/08 05:24:26;;;;;;;3.53;2.03;;;19.10;99.90;;;19.45;100.00;100213.22;5182692;28;20042;-71
2022/09/08 05:26:58;;;;;;;3.72;2.08;;;19.10;99.90;;;19.46;100.00;100214.97;5181883;28;20046;-70
2022/09/08 05:29:30;;;;;;;4.78;2.30;;;19.10;99.90;;;19.44;100.00;100208.84;5183490;28;20041;-70
2022/09/08 05:32:05;;;;;;;3.58;2.05;;;19.10;99.90;;;19.45;100.00;100205.31;5182089;28;20103;-70
2022/09/08 05:34:37;;;;;;;4.38;2.13;;;19.10;99.90;;;19.46;100.00;100209.69;5183666;28;20108;-69
2022/09/08 05:37:09;;;;;;;3.08;2.00;;;19.20;99.90;;;19.42;100.00;100213.25;5186367;28;20391;-69
2022/09/08 05:39:42;;;;;;;3.05;1.95;;;19.10;99.90;;;19.44;100.00;100222.94;5186503;28;20042;-69
2022/09/08 05:42:14;;;;;;;3.60;1.88;;;19.20;99.90;;;19.45;100.00;100221.16;5186288;28;20045;-69
2022/09/08 05:44:46;;;;;;;3.97;2.10;;;19.20;99.90;;;19.46;100.00;100215.84;5187468;28;20072;-69
2022/09/08 05:47:19;;;;;;;2.97;2.00;;;19.10;99.90;;;19.46;100.00;100220.25;5185926;28;20521;-70
2022/09/08 05:49:52;;;;;;;4.63;2.45;;;19.20;99.90;;;19.45;100.00;100229.97;5187191;28;20405;-70
2022/09/08 05:52:25;;;;;;;4.40;2.05;;;19.10;99.90;;;19.46;100.00;100215.84;5187716;28;20120;-70
2022/09/08 05:54:57;;;;;;;4.28;2.20;;;19.10;99.90;;;19.47;100.00;100217.59;5187363;28;20104;-70
2022/09/08 05:57:29;;;;;;;3.40;2.08;;;19.10;99.90;;;19.47;100.00;100216.72;5187508;28;20037;-70
2022/09/08 06:00:02;;;;;;;4.10;2.47;;;19.20;99.90;;;19.48;100.00;100221.09;5185740;28;20046;-70
2022/09/08 06:02:43;;;;;;;4.03;2.33;;;19.20;99.90;;;19.48;100.00;100218.47;5187203;28;20046;-70
2022/09/08 06:05:16;;;;;;;3.45;1.90;;;19.20;99.90;;;19.49;100.00;100220.22;5186988;28;20072;-57
2022/09/08 06:07:48;;;;;;;2.72;1.70;;;19.10;99.90;;;19.50;100.00;100222.00;5186888;28;20041;-58
2022/09/08 06:10:21;;;;;;;3.10;1.63;;;19.20;99.90;;;19.52;100.00;100225.47;5186978;28;20046;-57
2022/09/08 06:12:54;;;;;;;4.97;2.42;;;19.20;99.90;;;19.52;100.00;100231.66;5186946;28;20045;-57
2022/09/08 06:15:26;;;;;;;4.57;2.17;;;19.20;99.90;;;19.52;100.00;100225.47;5185400;28;20053;-56
2022/09/08 06:18:01;;;;;;;3.15;1.98;;;19.20;99.90;;;19.50;100.00;100237.84;5186793;28;20041;-58
2022/09/08 06:20:33;;;;;;;;;;;19.20;99.90;;;19.49;100.00;100233.44;5187258;28;20049;-56
2022/09/08 06:23:05;;;;;;;4.47;2.28;;;19.20;99.90;;;19.49;100.00;100236.94;5186736;28;19928;-56
2022/09/08 06:25:42;;;;;;;3.10;1.90;;;19.20;99.90;;;19.52;100.00;100241.34;5186784;28;20050;-57
2022/09/08 06:28:29;;;;;;;3.50;1.92;;;19.20;99.90;;;19.53;100.00;100241.31;5186779;28;20361;-56
2022/09/08 06:31:04;;;;;;;4.25;1.95;;;19.20;99.90;;;19.52;100.00;100236.06;5185463;28;20502;-58
2022/09/08 06:33:40;;;;;;;2.70;1.48;;;19.20;99.90;;;19.55;100.00;100240.44;5186654;28;20054;-56
2022/09/08 06:36:21;;;;;;;3.58;1.92;;;19.20;99.90;;;19.55;100.00;100236.00;5185993;28;20053;-56
2022/09/08 06:38:58;;;;;;;3.65;1.73;;;19.20;99.90;;;19.52;100.00;100221.06;5186453;28;20046;-56
2022/09/08 06:41:33;;;;;;;3.28;1.73;;;19.20;99.90;;;19.52;100.00;100225.47;5186728;28;20050;-57
2022/09/08 06:44:14;;;;;;;2.38;1.60;;;19.20;99.90;;;19.56;100.00;100231.59;5186282;28;20407;-57
2022/09/08 06:46:46;;;;;;;2.45;1.50;;;19.20;99.90;;;19.56;100.00;100232.50;5184790;28;20108;-59
2022/09/08 06:49:20;;;;;;;3.28;1.67;;;19.20;99.90;;;19.56;100.00;100227.22;5185000;28;20064;-57
2022/09/08 06:52:00;;;;;;;4.25;1.85;;;19.20;99.90;;;19.52;100.00;100225.47;5186253;28;20072;-58
2022/09/08 06:54:46;;;;;;;3.25;1.60;;;19.20;99.90;;;19.52;100.00;100228.13;5185039;28;20141;-57
2022/09/08 06:57:32;;;;;;;2.90;1.40;;;19.20;99.90;;;19.59;100.00;100231.63;5185855;28;20443;-59
2022/09/08 07:00:13;;;;;;;3.15;1.60;;;19.20;99.90;;;19.62;100.00;100232.44;5186117;28;20484;-57
2022/09/08 07:03:05;;;;;;;3.90;1.58;;;19.30;99.90;;;19.67;100.00;100224.47;5186280;28;20034;-57
2022/09/08 07:06:03;;;;;;;3.03;1.60;;;19.30;99.90;;;19.75;100.00;100234.06;5185899;28;20468;-58
2022/09/08 07:09:12;;;;;;;2.58;1.42;;;19.30;99.90;;;19.79;100.00;100230.50;5185942;28;20046;-60
2022/09/08 07:11:58;;;;;;;3.40;1.60;;;19.40;99.90;;;19.84;100.00;100229.56;5185848;28;20046;-56
2022/09/08 07:15:04;;;;;;;1.90;1.20;;;19.40;99.90;;;19.88;100.00;100232.13;5186125;28;20054;-55
2022/09/08 07:17:41;;;;;;;3.88;1.70;;;19.50;99.90;;;19.91;100.00;100236.53;5185491;28;20050;-57
2022/09/08 07:20:14;;;;;;;2.95;1.45;;;19.50;99.90;;;19.94;100.00;100233.84;5185595;28;20513;-58
2022/09/08 07:22:53;;;;;;;2.75;1.35;;;19.50;99.90;;;19.99;100.00;100229.38;5185625;28;20065;-57
2022/09/08 07:25:30;;;;;;;2.42;1.60;;;19.60;99.90;;;20.06;100.00;100236.34;5184418;28;20056;-58
2022/09/08 07:28:08;;;;;;;1.70;0.90;;;19.60;99.90;;;20.23;100.00;100244.06;5185425;28;20411;-56
2022/09/08 07:30:42;;;;;;;1.75;1.00;;;19.80;99.90;;;20.50;100.00;100237.53;5185775;28;20042;-56
2022/09/08 07:33:21;;;;;;;2.17;1.10;;;20.10;99.90;;;20.81;100.00;100246.78;5185730;28;20140;-59
2022/09/08 07:36:10;;;;;;;2.30;1.10;;;20.40;99.90;;;21.04;100.00;100245.50;5185406;28;20049;-57
2022/09/08 07:38:50;;;;;;;1.50;1.20;;;20.70;99.90;;;21.05;100.00;100252.56;5185448;28;20045;-63
2022/09/08 07:41:29;;;;;;;1.83;1.35;;;20.60;99.90;;;21.00;100.00;100254.44;5185826;28;20088;-57
2022/09/08 07:44:08;;;;;;;3.30;1.25;;;20.70;99.90;;;20.93;100.00;100255.41;5185400;28;20124;-56
2022/09/08 07:47:10;;;;;;;2.05;1.33;;;20.60;99.90;;;20.78;100.00;100267.13;5185125;28;20052;-56
2022/09/08 07:49:53;;;;;;;3.88;2.08;;;20.50;99.90;;;20.43;100.00;100273.78;5185683;28;20068;-55
2022/09/08 07:52:38;;;;;;;5.65;2.20;;;20.20;99.90;;;20.10;100.00;100267.16;5185727;28;20049;-56
2022/09/08 07:55:26;;;;;;;3.95;1.90;;;19.90;99.90;;;19.78;100.00;100264.88;5185254;28;20041;-57
2022/09/08 07:58:08;;;;;;;4.32;1.60;;;19.60;99.90;;;19.57;100.00;100275.66;5184680;28;20041;-55
2022/09/08 08:00:50;;;;;;;3.47;1.52;;;19.30;99.90;;;19.41;100.00;100269.63;5185025;28;20050;-55
2022/09/08 08:03:38;;;;;;;4.00;1.40;;;19.20;99.90;;;19.37;100.00;100283.78;5185215;28;20044;-56
2022/09/08 08:06:18;;;;;;;3.22;1.58;;;19.10;99.90;;;19.38;100.00;100285.53;5184591;28;20061;-56
2022/09/08 08:09:04;;;;;;;4.15;1.70;;;19.00;99.90;;;19.37;100.00;100279.38;5184729;28;20042;-56
2022/09/08 08:11:44;;;;;;;2.75;1.70;;;19.00;99.90;;;19.42;100.00;100282.84;5184815;28;20042;-57
2022/09/08 08:14:29;;;;;;;2.25;1.50;;;19.10;99.90;;;19.52;100.00;100283.63;5184697;28;20041;-56
2022/09/08 08:17:23;;;;;;;3.63;1.50;;;19.10;99.90;;;19.62;100.00;100295.00;5184426;28;20042;-55
2022/09/08 08:20:04;;;;;;;;;;;19.20;99.90;;;19.66;100.00;100294.97;5185220;28;20494;-55
2022/09/08 08:23:00;;;;;;;2.42;1.27;;;19.30;99.90;;;19.70;100.00;100288.78;5184531;28;20314;-59
2022/09/08 08:25:44;;;;;;;2.63;1.25;;;19.30;99.90;;;19.72;100.00;100292.28;5184559;28;20132;-56
2022/09/08 08:28:19;;;;;;;2.47;1.30;;;19.30;99.90;;;19.72;100.00;100307.25;5183181;28;20100;-57
2022/09/08 08:31:09;;;;;;;1.88;1.15;;;19.30;99.90;;;19.78;100.00;100309.84;5184207;28;20046;-56
2022/09/08 08:33:45;;;;;;;3.78;1.42;;;19.30;99.90;;;19.81;100.00;100301.88;5184478;28;20072;-57
2022/09/08 08:36:23;;;;;;;1.20;0.90;;;19.40;99.90;;;19.84;100.00;100311.56;5184095;28;20052;-56
2022/09/08 08:39:08;;;;;;;1.77;1.13;;;19.40;99.90;;;19.83;100.00;100310.69;5184305;28;20053;-57
2022/09/08 08:42:05;;;;;;;2.00;1.13;;;19.40;99.90;;;19.82;100.00;100315.97;5184435;28;20034;-57
2022/09/08 08:45:01;;;;;;;2.00;1.10;;;19.40;99.90;;;19.91;100.00;100313.25;5185433;28;20046;-57
2022/09/08 08:47:56;;;;;;;2.42;1.00;;;19.40;99.90;;;20.14;100.00;100311.19;5184112;28;20046;-54
2022/09/08 08:51:14;;;;;;;1.83;0.93;;;19.60;99.90;;;21.80;100.00;100313.13;5185538;28;20048;-54
2022/09/08 08:54:16;;;;;;;1.90;1.00;;;20.20;99.90;;;23.86;100.00;100322.66;5182773;28;20058;-55
2022/09/08 08:56:58;;;;;;;3.67;1.00;;;21.70;99.90;;;25.24;100.00;100314.13;5183863;28;20042;-56
2022/09/08 09:00:09;;;;;;;1.20;0.73;;;22.90;99.90;;;26.16;100.00;100315.34;5185346;28;20525;-56
2022/09/08 09:03:20;;;;;;;3.22;1.08;;;23.90;99.90;;;26.75;100.00;100322.91;5185387;28;20418;-54
2022/09/08 09:06:38;;;;;;;1.23;0.70;;;24.70;99.90;;;27.12;100.00;100321.44;5183477;28;20049;-54
2022/09/08 09:09:40;;;;;;;1.80;0.65;;;25.30;99.90;;;27.03;95.22;100328.00;5160026;28;20057;-54
2022/09/08 09:12:32;;;;;;;0.80;0.70;;;25.60;99.30;;;26.37;95.36;100336.81;5182515;28;20060;-54
2022/09/08 09:15:39;;;;;;;0.60;0.60;;;25.30;98.70;;;25.48;97.86;100334.63;5183885;28;20503;-54
2022/09/08 09:19:01;;;;;;;1.00;0.80;;;24.70;98.80;;;24.71;100.00;100335.31;5164763;28;20058;-54
2022/09/08 09:21:52;;;;;;;1.33;0.90;;;24.10;99.20;;;24.10;100.00;100333.50;5178742;28;20062;-54
2022/09/08 09:24:40;;;;;;;2.22;1.10;;;23.50;99.90;;;23.49;100.00;100332.44;5182450;28;20573;-54
2022/09/08 09:27:18;;;;;;;2.10;0.60;;;23.00;99.90;;;23.00;100.00;100327.47;5182128;28;20422;-53
2022/09/08 09:30:13;;;;;;;1.77;0.90;;;22.50;99.90;;;22.61;100.00;100334.50;5183796;28;20049;-54
2022/09/08 09:33:36;;;;;;;1.15;0.70;;;22.20;99.90;;;22.32;100.00;100336.03;5184540;28;20097;-53
2022/09/08 09:36:39;;;;;;;1.88;0.70;;;21.90;99.90;;;22.05;100.00;100325.94;5183489;28;20426;-54
2022/09/08 09:39:50;;;;;;;0.77;0.77;;;21.60;99.90;;;21.95;100.00;100327.88;5174116;28;20542;-54
2022/09/08 09:42:42;;;;;;;1.20;0.68;;;21.50;99.90;;;21.95;100.00;100320.78;5183940;28;20061;-55
2022/09/08 09:45:42;;;;;;;1.15;0.70;;;21.40;99.90;;;21.98;100.00;100321.66;5183899;28;20042;-55
2022/09/08 09:48:53;;;;;;;1.42;0.50;;;21.40;99.90;;;21.77;100.00;100326.44;5183640;28;20068;-58
2022/09/08 09:51:41;;;;;;;0.43;0.43;;;21.40;99.90;;;21.67;100.00;100325.75;5182761;28;20042;-55
2022/09/08 09:54:42;;;;;;;1.08;0.52;;;21.20;99.90;;;21.66;100.00;100320.47;5183929;28;20402;-55
2022/09/08 09:58:04;;;;;;;1.00;0.60;;;21.20;99.90;;;21.70;100.00;100324.78;5183210;28;20072;-54
2022/09/08 10:01:00;;;;;;;0.75;0.45;;;21.20;99.90;;;21.75;100.00;100332.69;5161023;28;20499;-54
2022/09/08 10:04:23;;;;;;;1.23;0.60;;;21.20;99.90;;;21.83;100.00;100328.97;5183837;28;20050;-53
2022/09/08 10:07:22;;;;;;;1.88;0.68;;;21.30;99.90;;;21.98;100.00;100327.84;5183019;28;20050;-54
2022/09/08 10:10:36;;;;;;;1.35;0.45;;;21.40;99.90;;;22.03;100.00;100333.03;5183614;28;20042;-54
2022/09/08 10:14:08;;;;;;;2.67;0.60;;;21.50;99.90;;;22.17;100.00;100331.03;5182584;28;20069;-55
2022/09/08 10:17:28;;;;;;;1.38;0.50;;;21.50;99.90;;;22.25;100.00;100328.22;5135156;28;20058;-53
2022/09/08 10:20:46;;;;;;;1.05;0.50;;;21.60;99.90;;;22.60;100.00;100330.13;5120654;29;20069;-54
2022/09/08 10:24:14;;;;;;;0.90;0.47;;;21.90;99.90;;;23.05;100.00;100322.03;5187093;28;20076;-53
2022/09/08 10:27:22;;;;;;;1.52;0.50;;;22.20;99.90;;;23.26;100.00;100321.50;5186912;28;20092;-55
2022/09/08 10:30:16;;;;;;;1.33;0.55;;;22.50;99.90;;;23.29;100.00;100317.00;5186783;28;20041;-54
2022/09/08 10:33:43;;;;;;;0.85;0.50;;;22.50;99.90;;;23.34;100.00;100318.66;5187078;28;20046;-54
2022/09/08 10:36:16;;;;;;;0.80;0.60;;;22.60;99.90;;;23.32;99.08;100315.16;5186658;28;20045;-54
2022/09/08 10:38:58;;;;;;;1.15;0.70;;;22.60;99.70;;;23.27;99.47;100317.94;5186693;28;20526;-54
2022/09/08 10:42:26;;;;;;;1.85;0.60;;;22.60;99.60;;;23.32;97.75;100324.00;5186865;28;20071;-54
2022/09/08 10:45:27;;;;;;;2.58;0.52;;;22.70;99.30;;;23.58;97.48;100317.16;5186975;28;20365;-55
2022/09/08 10:48:57;;;;;;;2.03;0.70;;;22.80;99.10;;;23.73;95.25;100317.66;5186368;28;20076;-54
2022/09/08 10:52:10;;;;;;;1.33;0.70;;;23.00;98.40;;;23.60;94.91;100315.31;5184992;28;20049;-55
2022/09/08 10:55:28;;;;;;;0.80;0.70;;;23.00;98.10;;;23.35;96.27;100309.78;5186226;28;20096;-55
2022/09/08 10:58:51;;;;;;;0.50;0.50;;;22.80;98.20;;;23.24;98.22;100308.25;5186140;28;20056;-55
2022/09/08 11:01:51;;;;;;;1.40;0.38;;;22.70;98.90;;;23.17;96.99;100300.47;5177261;28;20140;-54
2022/09/08 11:05:33;;;;;;;1.35;0.40;;;22.60;98.40;;;22.98;95.84;100311.56;5186452;28;20050;-55
2022/09/08 11:09:03;;;;;;;1.05;0.52;;;22.50;98.00;;;23.16;97.51;100304.06;5186211;28;20060;-54
2022/09/08 11:12:13;;;;;;;0.90;0.40;;;22.50;98.40;;;23.79;97.23;100298.00;5186194;28;20129;-56
2022/09/08 11:15:21;;;;;;;0.98;0.50;;;22.90;98.80;;;24.43;95.13;100297.97;5185064;28;20042;-56